createdAt,value
2017-11-15T00:00:36.029Z,1.70
2017-11-15T00:03:05.247Z,2.43
2017-11-15T00:05:41.941Z,1.63
2017-11-15T00:08:11.023Z,1.70
2017-11-15T00:10:40.032Z,2.10
2017-11-15T00:13:09.016Z,1.27
2017-11-15T00:15:38.011Z,1.80
2017-11-15T00:18:14.777Z,1.53
2017-11-15T00:20:50.034Z,1.80
2017-11-15T00:23:25.085Z,1.73
2017-11-15T00:25:54.136Z,1.90
2017-11-15T00:28:23.159Z,1.67
2017-11-15T00:30:59.903Z,1.70
2017-11-15T00:33:28.968Z,2.17
2017-11-15T00:36:05.149Z,1.60
2017-11-15T00:38:34.275Z,1.90
2017-11-15T00:41:09.327Z,1.90
2017-11-15T00:43:38.342Z,1.60
2017-11-15T00:46:07.352Z,1.77
2017-11-15T00:48:36.459Z,2.50
2017-11-15T00:51:18.092Z,1.87
2017-11-15T00:53:47.128Z,1.80
2017-11-15T00:56:24.006Z,1.90
2017-11-15T00:58:53.064Z,1.63
2017-11-15T01:01:22.093Z,1.80
2017-11-15T01:03:51.188Z,1.70
2017-11-15T01:06:20.238Z,1.70
2017-11-15T01:08:49.281Z,1.93
2017-11-15T01:11:18.456Z,1.63
2017-11-15T01:13:47.448Z,1.77
2017-11-15T01:16:16.522Z,2.33
2017-11-15T01:18:51.911Z,1.37
2017-11-15T01:21:20.981Z,2.43
2017-11-15T01:23:50.044Z,1.60
2017-11-15T01:26:28.182Z,2.00
2017-11-15T01:28:57.208Z,1.50
2017-11-15T01:31:26.239Z,1.60
2017-11-15T01:33:56.016Z,1.53
2017-11-15T01:36:25.374Z,1.80
2017-11-15T01:38:56.728Z,1.70
2017-11-15T01:41:25.763Z,1.80
2017-11-15T01:43:54.852Z,2.07
2017-11-15T01:46:23.940Z,1.70
2017-11-15T01:48:53.048Z,1.40
2017-11-15T01:51:22.160Z,1.80
2017-11-15T01:53:58.925Z,1.90
2017-11-15T01:56:28.169Z,1.60
2017-11-15T01:58:57.382Z,1.40
2017-11-15T02:01:37.411Z,1.50
2017-11-15T02:04:20.067Z,1.50
2017-11-15T02:06:55.063Z,1.30
2017-11-15T02:09:25.080Z,1.37
2017-11-15T02:11:54.246Z,1.57
2017-11-15T02:14:23.243Z,1.57
2017-11-15T02:16:58.537Z,1.70
2017-11-15T02:19:29.140Z,1.63
2017-11-15T02:22:05.241Z,1.40
2017-11-15T02:24:35.497Z,1.83
2017-11-15T02:27:06.404Z,1.50
2017-11-15T02:29:35.435Z,1.33
2017-11-15T02:32:04.595Z,1.30
2017-11-15T02:34:34.020Z,1.63
2017-11-15T02:37:03.141Z,1.50
2017-11-15T02:39:32.239Z,1.63
2017-11-15T02:42:01.316Z,1.37
2017-11-15T02:44:30.473Z,1.43
2017-11-15T02:47:00.382Z,1.63
2017-11-15T02:49:37.549Z,1.50
2017-11-15T02:52:06.635Z,1.47
2017-11-15T02:54:48.521Z,1.40
2017-11-15T02:57:17.531Z,1.20
2017-11-15T02:59:46.601Z,1.83
2017-11-15T03:02:15.633Z,1.40
2017-11-15T03:04:44.747Z,1.30
2017-11-15T03:07:23.197Z,1.60
2017-11-15T03:09:52.240Z,1.80
2017-11-15T03:12:21.765Z,2.17
2017-11-15T03:14:56.984Z,1.80
2017-11-15T03:17:26.079Z,1.60
2017-11-15T03:19:55.288Z,1.50
2017-11-15T03:22:24.315Z,1.57
2017-11-15T03:24:53.387Z,1.40
2017-11-15T03:27:35.440Z,1.63
2017-11-15T03:30:05.056Z,1.63
2017-11-15T03:32:34.096Z,1.50
2017-11-15T03:35:03.107Z,1.30
2017-11-15T03:37:32.151Z,1.97
2017-11-15T03:40:08.928Z,1.70
2017-11-15T03:42:47.260Z,1.70
2017-11-15T03:45:16.386Z,1.70
2017-11-15T03:47:45.406Z,1.50
2017-11-15T03:50:14.422Z,1.60
2017-11-15T03:53:04.569Z,1.20
2017-11-15T03:55:33.832Z,1.43
2017-11-15T03:58:02.930Z,1.50
2017-11-15T04:00:33.488Z,1.20
2017-11-15T04:03:02.502Z,1.40
2017-11-15T04:05:32.472Z,1.40
2017-11-15T04:08:01.500Z,2.03
2017-11-15T04:10:30.520Z,1.63
2017-11-15T04:13:02.626Z,1.00
2017-11-15T04:15:31.675Z,1.20
2017-11-15T04:18:00.730Z,1.17
2017-11-15T04:20:29.753Z,1.43
2017-11-15T04:22:58.766Z,1.47
2017-11-15T04:25:27.804Z,1.27
2017-11-15T04:27:56.853Z,1.50
2017-11-15T04:30:25.864Z,1.40
2017-11-15T04:32:54.915Z,1.23
2017-11-15T04:35:24.040Z,1.30
2017-11-15T04:37:53.071Z,1.70
2017-11-15T04:40:22.123Z,3.47
2017-11-15T04:42:58.307Z,3.90
2017-11-15T04:45:33.644Z,2.57
2017-11-15T04:48:10.417Z,2.23
2017-11-15T04:50:39.454Z,2.30
2017-11-15T04:53:14.487Z,2.40
2017-11-15T04:55:43.543Z,1.60
2017-11-15T04:58:12.541Z,1.60
2017-11-15T05:00:46.369Z,1.90
2017-11-15T05:03:15.381Z,1.40
2017-11-15T05:05:50.421Z,1.80
2017-11-15T05:08:19.447Z,2.90
2017-11-15T05:10:52.045Z,3.00
2017-11-15T05:13:21.065Z,2.80
2017-11-15T05:15:50.155Z,4.37
2017-11-15T05:18:19.164Z,3.70
2017-11-15T05:20:49.106Z,6.70
2017-11-15T05:23:18.157Z,4.87
2017-11-15T05:25:47.218Z,5.10
2017-11-15T05:28:23.706Z,4.00
2017-11-15T05:30:52.747Z,3.53
2017-11-15T05:33:21.772Z,5.63
2017-11-15T05:35:50.780Z,6.90
2017-11-15T05:38:27.095Z,6.93
2017-11-15T05:40:57.083Z,7.60
2017-11-15T05:43:26.150Z,6.07
2017-11-15T05:45:55.190Z,5.77
2017-11-15T05:48:24.201Z,6.03
2017-11-15T05:50:53.276Z,7.80
2017-11-15T05:53:34.415Z,9.60
2017-11-15T05:56:03.513Z,7.60
2017-11-15T05:58:32.602Z,6.30
2017-11-15T06:01:01.631Z,6.10
2017-11-15T06:03:31.236Z,7.67
2017-11-15T06:06:08.060Z,3.13
2017-11-15T06:08:37.115Z,3.33
2017-11-15T06:11:06.239Z,3.03
2017-11-15T06:13:35.330Z,8.23
2017-11-15T06:16:17.139Z,10.87
2017-11-15T06:18:46.278Z,10.40
2017-11-15T06:21:17.236Z,4.40
2017-11-15T06:23:47.168Z,3.17
2017-11-15T06:26:23.680Z,3.50
2017-11-15T06:28:52.727Z,4.77
2017-11-15T06:31:21.864Z,3.20
2017-11-15T06:33:51.061Z,4.97
2017-11-15T06:36:21.900Z,5.17
2017-11-15T06:38:50.964Z,3.10
2017-11-15T06:41:19.980Z,2.03
2017-11-15T06:43:56.348Z,3.13
2017-11-15T06:46:25.376Z,2.83
2017-11-15T06:48:54.408Z,2.07
2017-11-15T06:51:23.460Z,2.67
2017-11-15T06:53:52.553Z,2.53
2017-11-15T06:56:21.603Z,2.97
2017-11-15T06:59:03.481Z,1.80
2017-11-15T07:01:32.529Z,2.47
2017-11-15T07:04:01.565Z,1.83
2017-11-15T07:06:30.614Z,3.37
2017-11-15T07:08:59.668Z,2.70
2017-11-15T07:11:38.205Z,1.93
2017-11-15T07:14:07.245Z,2.00
2017-11-15T07:16:36.321Z,2.30
2017-11-15T07:19:13.246Z,2.50
2017-11-15T07:21:49.749Z,2.47
2017-11-15T07:24:25.112Z,3.27
2017-11-15T07:26:54.580Z,4.60
2017-11-15T07:29:25.245Z,2.10
2017-11-15T07:31:56.224Z,2.53
2017-11-15T07:34:29.561Z,2.47
2017-11-15T07:36:58.639Z,2.50
2017-11-15T07:39:27.685Z,2.00
2017-11-15T07:41:56.754Z,2.70
2017-11-15T07:44:25.791Z,2.60
2017-11-15T07:46:54.802Z,2.70
2017-11-15T07:49:24.196Z,2.50
2017-11-15T07:51:53.256Z,3.73
2017-11-15T07:54:22.321Z,5.30
2017-11-15T07:56:51.413Z,2.50
2017-11-15T07:59:20.477Z,2.80
2017-11-15T08:01:52.880Z,3.20
2017-11-15T08:04:22.948Z,3.50
2017-11-15T08:07:06.986Z,2.40
2017-11-15T08:09:36.057Z,3.60
2017-11-15T08:12:05.453Z,3.00
2017-11-15T08:14:36.639Z,3.40
2017-11-15T08:17:06.526Z,2.80
2017-11-15T08:19:35.762Z,6.60
2017-11-15T08:22:04.827Z,6.10
2017-11-15T08:24:34.125Z,5.73
2017-11-15T08:27:03.191Z,8.43
2017-11-15T08:29:51.861Z,5.50
2017-11-15T08:32:21.204Z,5.47
2017-11-15T08:34:50.804Z,3.00
2017-11-15T08:37:20.660Z,3.53
2017-11-15T08:40:01.653Z,2.17
2017-11-15T08:42:36.850Z,3.37
2017-11-15T08:45:11.944Z,2.80
2017-11-15T08:47:41.037Z,3.07
2017-11-15T08:50:22.589Z,2.50
2017-11-15T08:52:57.643Z,1.93
2017-11-15T08:55:26.700Z,2.57
2017-11-15T08:57:55.916Z,2.37
2017-11-15T09:00:25.320Z,2.17
2017-11-15T09:02:54.373Z,1.90
2017-11-15T09:05:23.550Z,2.70
2017-11-15T09:07:52.628Z,2.53
2017-11-15T09:10:22.773Z,2.90
2017-11-15T09:12:52.608Z,2.30
2017-11-15T09:15:21.676Z,2.47
2017-11-15T09:17:51.012Z,1.90
2017-11-15T09:20:20.069Z,4.43
2017-11-15T09:22:51.280Z,1.90
2017-11-15T09:25:20.312Z,4.07
2017-11-15T09:27:49.592Z,4.43
2017-11-15T09:30:18.654Z,3.30
2017-11-15T09:32:47.692Z,2.37
2017-11-15T09:35:19.788Z,2.17
2017-11-15T09:37:49.311Z,2.03
2017-11-15T09:40:18.360Z,2.60
2017-11-15T09:42:47.373Z,2.50
2017-11-15T09:45:16.429Z,3.20
2017-11-15T09:47:46.447Z,4.00
2017-11-15T09:50:15.622Z,2.53
2017-11-15T09:52:44.662Z,2.07
2017-11-15T09:55:13.739Z,2.20
2017-11-15T09:57:42.794Z,2.50
2017-11-15T10:00:15.213Z,1.77
2017-11-15T10:02:44.215Z,2.20
2017-11-15T10:05:13.181Z,2.60
2017-11-15T10:07:42.240Z,2.60
2017-11-15T10:10:11.285Z,3.43
2017-11-15T10:12:40.307Z,3.07
2017-11-15T10:15:09.377Z,2.43
2017-11-15T10:17:38.416Z,2.63
2017-11-15T10:20:07.484Z,4.07
2017-11-15T10:22:36.560Z,4.17
2017-11-15T10:25:05.607Z,2.90
2017-11-15T10:27:34.689Z,2.80
2017-11-15T10:30:03.777Z,2.50
2017-11-15T10:32:36.481Z,1.90
2017-11-15T10:35:05.492Z,2.00
2017-11-15T10:37:34.764Z,2.37
2017-11-15T10:40:03.805Z,1.83
2017-11-15T10:42:33.063Z,4.63
2017-11-15T10:45:02.377Z,5.60
2017-11-15T10:47:31.402Z,5.30
2017-11-15T10:50:00.637Z,5.50
2017-11-15T10:52:29.709Z,5.27
2017-11-15T10:54:59.804Z,5.30
2017-11-15T10:57:29.266Z,5.10
2017-11-15T11:00:00.016Z,4.00
2017-11-15T11:02:32.923Z,5.13
2017-11-15T11:05:02.001Z,4.93
2017-11-15T11:07:31.236Z,4.03
2017-11-15T11:10:00.980Z,4.60
2017-11-15T11:12:30.310Z,5.50
2017-11-15T11:15:06.850Z,5.53
2017-11-15T11:17:35.956Z,7.27
2017-11-15T11:20:06.408Z,5.43
2017-11-15T11:22:35.472Z,4.33
2017-11-15T11:25:04.525Z,6.03
2017-11-15T11:27:41.132Z,5.67
2017-11-15T11:30:10.153Z,5.17
2017-11-15T11:32:39.254Z,5.10
2017-11-15T11:35:08.547Z,5.23
2017-11-15T11:37:37.584Z,4.73
2017-11-15T11:40:06.579Z,5.40
2017-11-15T11:42:35.608Z,4.60
2017-11-15T11:45:04.636Z,3.70
2017-11-15T11:47:35.452Z,4.30
2017-11-15T11:50:05.485Z,4.43
2017-11-15T11:52:34.535Z,3.70
2017-11-15T11:55:19.078Z,5.33
2017-11-15T11:57:54.302Z,4.67
2017-11-15T12:00:23.423Z,3.70
2017-11-15T12:02:52.437Z,4.83
2017-11-15T12:05:21.505Z,3.80
2017-11-15T12:07:50.555Z,4.27
2017-11-15T12:10:19.620Z,4.53
2017-11-15T12:12:48.790Z,4.20
2017-11-15T12:15:18.069Z,4.47
2017-11-15T12:17:47.142Z,10.20
2017-11-15T12:20:16.179Z,4.53
2017-11-15T12:22:45.181Z,4.33
2017-11-15T12:25:14.228Z,5.87
2017-11-15T12:27:51.672Z,5.10
2017-11-15T12:30:20.761Z,4.82
2017-11-15T12:32:50.217Z,3.50
2017-11-15T12:35:19.556Z,4.33
2017-11-15T12:37:48.850Z,3.60
2017-11-15T12:40:18.026Z,3.80
2017-11-15T12:42:47.093Z,4.20
2017-11-15T12:45:16.180Z,3.50
2017-11-15T12:47:45.253Z,3.70
2017-11-15T12:50:14.916Z,3.80
2017-11-15T12:52:43.907Z,3.07
2017-11-15T12:55:13.354Z,3.60
2017-11-15T12:57:42.902Z,4.27
2017-11-15T13:00:18.172Z,3.40
2017-11-15T13:02:48.043Z,3.63
2017-11-15T13:05:17.491Z,3.20
2017-11-15T13:07:46.510Z,3.97
2017-11-15T13:10:15.778Z,3.43
2017-11-15T13:12:45.270Z,3.60
2017-11-15T13:15:14.304Z,3.90
2017-11-15T13:17:43.361Z,3.77
2017-11-15T13:20:12.440Z,4.17
2017-11-15T13:22:41.960Z,4.20
2017-11-15T13:25:11.031Z,4.50
2017-11-15T13:27:40.350Z,3.83
2017-11-15T13:30:13.609Z,3.30
2017-11-15T13:32:42.751Z,3.10
2017-11-15T13:35:20.512Z,3.20
2017-11-15T13:37:49.581Z,3.03
2017-11-15T13:40:22.516Z,3.40
2017-11-15T13:42:55.772Z,3.80
2017-11-15T13:45:24.812Z,3.00
2017-11-15T13:47:59.877Z,3.17
2017-11-15T13:50:35.785Z,3.10
2017-11-15T13:53:05.106Z,3.20
2017-11-15T13:55:34.096Z,2.70
2017-11-15T13:58:03.109Z,3.07
2017-11-15T14:00:32.612Z,3.43
2017-11-15T14:03:21.469Z,3.20
2017-11-15T14:05:50.625Z,2.90
2017-11-15T14:08:19.833Z,3.57
2017-11-15T14:10:48.852Z,2.67
2017-11-15T14:13:17.872Z,3.80
2017-11-15T14:15:46.865Z,3.63
2017-11-15T14:18:22.148Z,3.57
2017-11-15T14:20:51.500Z,3.40
2017-11-15T14:23:20.559Z,3.93
2017-11-15T14:25:50.360Z,2.70
2017-11-15T14:28:22.481Z,3.23
2017-11-15T14:30:54.201Z,3.07
2017-11-15T14:33:23.322Z,2.90
2017-11-15T14:35:53.689Z,2.70
2017-11-15T14:38:22.782Z,2.83
2017-11-15T14:40:51.843Z,2.83
2017-11-15T14:43:20.897Z,3.57
2017-11-15T14:45:49.904Z,2.47
2017-11-15T14:48:20.357Z,2.77
2017-11-15T14:50:49.399Z,2.33
2017-11-15T14:53:18.434Z,2.73
2017-11-15T14:55:48.449Z,2.90
2017-11-15T14:58:17.473Z,2.50
2017-11-15T15:00:46.564Z,2.67
2017-11-15T15:03:15.616Z,2.53
2017-11-15T15:05:45.608Z,2.93
2017-11-15T15:08:14.620Z,2.40
2017-11-15T15:10:44.157Z,2.30
2017-11-15T15:13:13.342Z,2.53
2017-11-15T15:15:42.507Z,2.50
2017-11-15T15:18:11.562Z,2.30
2017-11-15T15:23:14.033Z,2.80
2017-11-15T15:25:43.119Z,2.87
2017-11-15T15:28:12.261Z,2.50
2017-11-15T15:30:41.263Z,2.70
2017-11-15T15:33:10.562Z,2.40
2017-11-15T15:35:41.413Z,2.87
2017-11-15T15:38:10.908Z,2.93
2017-11-15T15:40:40.154Z,2.60
2017-11-15T15:43:09.165Z,2.53
2017-11-15T15:45:38.206Z,3.30
2017-11-15T15:48:07.257Z,3.20
2017-11-15T15:50:36.275Z,3.03
2017-11-15T15:53:05.779Z,2.70
2017-11-15T15:55:34.841Z,3.83
2017-11-15T15:58:03.827Z,3.30
2017-11-15T16:00:32.872Z,3.00
2017-11-15T16:03:01.913Z,4.20
2017-11-15T16:05:30.929Z,6.30
2017-11-15T16:07:59.989Z,5.80
2017-11-15T16:10:29.068Z,5.07
2017-11-15T16:12:58.350Z,5.13
2017-11-15T16:15:27.373Z,3.17
2017-11-15T16:18:03.591Z,5.00
2017-11-15T16:20:32.720Z,3.77
2017-11-15T16:23:01.719Z,4.57
2017-11-15T16:25:36.797Z,4.30
2017-11-15T16:28:05.871Z,3.23
2017-11-15T16:30:38.725Z,4.50
2017-11-15T16:33:07.808Z,4.50
2017-11-15T16:35:36.821Z,4.13
2017-11-15T16:38:05.868Z,4.33
2017-11-15T16:40:34.901Z,3.47
2017-11-15T16:43:04.045Z,3.63
2017-11-15T16:45:33.331Z,5.40
2017-11-15T16:48:02.632Z,4.10
2017-11-15T16:50:31.688Z,5.83
2017-11-15T16:53:00.766Z,5.03
2017-11-15T16:55:30.435Z,4.40
2017-11-15T16:57:59.947Z,4.40
2017-11-15T17:00:29.795Z,4.70
2017-11-15T17:02:58.804Z,4.40
2017-11-15T17:05:27.833Z,5.10
2017-11-15T17:08:12.190Z,3.57
2017-11-15T17:10:41.246Z,4.37
2017-11-15T17:13:24.911Z,3.97
2017-11-15T17:15:54.203Z,3.40
2017-11-15T17:18:23.437Z,3.50
2017-11-15T17:20:52.502Z,4.53
2017-11-15T17:23:21.797Z,3.97
2017-11-15T17:25:51.684Z,3.63
2017-11-15T17:28:20.693Z,6.10
2017-11-15T17:30:50.026Z,5.40
2017-11-15T17:33:19.391Z,4.47
2017-11-15T17:35:48.668Z,3.70
2017-11-15T17:38:17.725Z,5.07
2017-11-15T17:40:46.787Z,7.10
2017-11-15T17:43:15.832Z,6.80
2017-11-15T17:45:44.987Z,5.80
2017-11-15T17:48:14.116Z,4.60
2017-11-15T17:50:43.213Z,3.83
2017-11-15T17:53:18.293Z,5.00
2017-11-15T17:55:47.459Z,4.90
2017-11-15T17:58:16.511Z,4.83
2017-11-15T18:00:45.755Z,5.30
2017-11-15T18:03:15.403Z,4.83
2017-11-15T18:05:50.540Z,3.63
2017-11-15T18:08:25.675Z,5.10
2017-11-15T18:10:54.726Z,4.40
2017-11-15T18:13:23.782Z,3.00
2017-11-15T18:15:53.157Z,4.93
2017-11-15T18:18:22.442Z,2.80
2017-11-15T18:20:51.653Z,4.43
2017-11-15T18:23:20.772Z,3.50
2017-11-15T18:25:49.815Z,4.33
2017-11-15T18:28:19.155Z,3.10
2017-11-15T18:30:48.206Z,3.50
2017-11-15T18:33:17.235Z,3.20
2017-11-15T18:35:46.524Z,4.83
2017-11-15T18:38:15.612Z,4.17
2017-11-15T18:40:44.619Z,4.03
2017-11-15T18:43:13.607Z,3.57
2017-11-15T18:45:42.708Z,4.40
2017-11-15T18:48:12.179Z,5.50
2017-11-15T18:50:49.251Z,4.43
2017-11-15T18:53:18.473Z,3.43
2017-11-15T18:55:53.501Z,4.50
2017-11-15T18:58:22.884Z,4.93
2017-11-15T19:00:51.908Z,4.00
2017-11-15T19:03:20.968Z,3.90
2017-11-15T19:05:57.172Z,6.13
2017-11-15T19:08:26.183Z,4.60
2017-11-15T19:10:55.268Z,5.17
2017-11-15T19:13:24.280Z,4.10
2017-11-15T19:15:53.749Z,4.70
2017-11-15T19:18:29.020Z,4.67
2017-11-15T19:20:58.037Z,4.20
2017-11-15T19:23:27.293Z,3.67
2017-11-15T19:25:56.548Z,4.00
2017-11-15T19:28:25.900Z,4.33
2017-11-15T19:30:55.123Z,4.80
2017-11-15T19:33:24.205Z,4.80
2017-11-15T19:35:53.200Z,3.90
2017-11-15T19:38:29.551Z,5.47
2017-11-15T19:40:58.645Z,5.10
2017-11-15T19:43:27.698Z,5.03
2017-11-15T19:45:56.714Z,4.87
2017-11-15T19:48:26.141Z,4.30
2017-11-15T19:50:55.913Z,4.30
2017-11-15T19:53:25.184Z,5.00
2017-11-15T19:55:58.364Z,5.10
2017-11-15T19:58:28.221Z,4.13
2017-11-15T20:00:57.362Z,4.30
2017-11-15T20:03:26.844Z,5.23
2017-11-15T20:05:58.368Z,5.03
2017-11-15T20:08:27.385Z,4.93
2017-11-15T20:10:56.429Z,4.90
2017-11-15T20:13:25.508Z,5.10
2017-11-15T20:16:05.737Z,4.97
2017-11-15T20:18:34.824Z,4.43
2017-11-15T20:21:03.913Z,5.70
2017-11-15T20:23:33.719Z,5.60
2017-11-15T20:26:03.279Z,5.83
2017-11-15T20:28:33.755Z,5.33
2017-11-15T20:31:03.762Z,5.00
2017-11-15T20:33:33.917Z,5.40
2017-11-15T20:36:12.519Z,4.90
2017-11-15T20:38:42.071Z,6.03
2017-11-15T20:41:18.337Z,5.87
2017-11-15T20:43:48.185Z,5.13
2017-11-15T20:46:18.940Z,5.37
2017-11-15T20:48:48.093Z,5.27
2017-11-15T20:51:26.479Z,5.37
2017-11-15T20:53:56.184Z,5.20
2017-11-15T20:56:26.846Z,5.20
2017-11-15T20:58:57.716Z,5.40
2017-11-15T21:01:27.281Z,5.27
2017-11-15T21:04:00.243Z,4.70
2017-11-15T21:06:30.849Z,5.10
2017-11-15T21:09:00.281Z,4.83
2017-11-15T21:11:33.025Z,4.70
2017-11-15T21:14:09.279Z,4.47
2017-11-15T21:16:40.241Z,5.63
2017-11-15T21:19:10.110Z,5.00
2017-11-15T21:21:39.879Z,4.47
2017-11-15T21:24:10.209Z,5.07
2017-11-15T21:26:41.104Z,4.40
2017-11-15T21:29:10.357Z,3.97
2017-11-15T21:31:45.424Z,3.53
2017-11-15T21:34:14.546Z,3.57
2017-11-15T21:36:44.401Z,3.47
2017-11-15T21:39:13.621Z,3.63
2017-11-15T21:41:42.724Z,3.33
2017-11-15T21:44:12.508Z,3.37
2017-11-15T21:46:41.625Z,4.10
2017-11-15T21:49:10.921Z,3.50
2017-11-15T21:51:40.433Z,3.90
2017-11-15T21:54:09.797Z,3.83
2017-11-15T21:56:39.097Z,3.10
2017-11-15T21:59:08.501Z,3.20
2017-11-15T22:01:37.944Z,2.70
2017-11-15T22:04:08.212Z,3.47
2017-11-15T22:06:37.465Z,2.87
2017-11-15T22:09:14.536Z,2.73
2017-11-15T22:11:45.471Z,3.33
2017-11-15T22:14:15.552Z,2.70
2017-11-15T22:16:57.908Z,3.10
2017-11-15T22:19:26.991Z,4.10
2017-11-15T22:21:56.131Z,4.07
2017-11-15T22:24:26.111Z,3.40
2017-11-15T22:26:55.241Z,3.00
2017-11-15T22:29:24.498Z,3.33
2017-11-15T22:31:53.632Z,3.13
2017-11-15T22:34:22.612Z,3.70
2017-11-15T22:36:58.798Z,3.07
2017-11-15T22:39:28.340Z,3.30
2017-11-15T22:41:57.996Z,3.63
2017-11-15T22:44:28.163Z,3.10
2017-11-15T22:47:04.013Z,3.03
2017-11-15T22:49:33.025Z,3.53
2017-11-15T22:52:13.111Z,2.70
2017-11-15T22:54:42.137Z,3.50
2017-11-15T22:57:11.401Z,2.90
2017-11-15T22:59:40.399Z,2.90
2017-11-15T23:02:09.378Z,2.87
2017-11-15T23:04:46.468Z,2.77
2017-11-15T23:07:15.515Z,3.30
2017-11-15T23:09:44.492Z,3.20
2017-11-15T23:12:13.628Z,3.47
2017-11-15T23:14:42.671Z,3.50
2017-11-15T23:17:11.692Z,3.23
2017-11-15T23:19:40.788Z,2.90
2017-11-15T23:22:09.840Z,2.90
2017-11-15T23:24:51.763Z,2.80
2017-11-15T23:27:26.786Z,2.83
2017-11-15T23:29:55.863Z,2.80
2017-11-15T23:32:24.898Z,3.07
2017-11-15T23:34:54.056Z,2.80
2017-11-15T23:37:23.213Z,2.87
2017-11-15T23:39:52.296Z,2.90
2017-11-15T23:42:21.347Z,3.13
2017-11-15T23:44:50.367Z,2.60
2017-11-15T23:47:19.379Z,2.90
2017-11-15T23:49:48.403Z,3.10
2017-11-15T23:52:18.564Z,2.83
2017-11-15T23:54:49.364Z,3.40
2017-11-15T23:57:18.412Z,2.67
2017-11-15T23:59:48.512Z,3.20
